Fort Augustus, United Kingdom
Current Conditions -  °F | °C
As of 8:20 AM on Thursday 18 Dec 2014 (Local Time) from EGPE Reporting Station
Rain Showers Rain Showers  
Wind Chill: 38°   Ceiling: 3800
Heat Index: 45°   Visibility: 6mi
Dew Point: 41°   Wind: 15mph
Humidity: 87%   Direction: 240°WSW
Pressure: 29.23"   Gusts: NA
Location:  57.14°N, 4.68°W
Report Text: EGPE 180820Z 24013KT 9999 -SHRA FEW015 BKN038 07/05 Q0990
Loading
Personal Weather Stations






























Interactive Weather Map New forecast layout! Learn more

10-Day Weather Forecast

Advertisements
Track Severe Weather on mobile